sensor_id;sensor_type;location;lat;lon;timestamp;temperature;humidity
1337;DHT22;662;48.814;9.318;2023-06-22T00:02:25;24.80;60.40
1337;DHT22;662;48.814;9.318;2023-06-22T00:04:51;24.80;60.50
1337;DHT22;662;48.814;9.318;2023-06-22T00:07:16;24.70;60.40
1337;DHT22;662;48.814;9.318;2023-06-22T00:09:42;24.70;60.60
1337;DHT22;662;48.814;9.318;2023-06-22T00:12:08;24.70;60.80
1337;DHT22;662;48.814;9.318;2023-06-22T00:14:33;24.70;60.80
1337;DHT22;662;48.814;9.318;2023-06-22T00:16:59;24.70;60.90
1337;DHT22;662;48.814;9.318;2023-06-22T00:19:25;24.60;60.70
1337;DHT22;662;48.814;9.318;2023-06-22T00:21:51;24.60;60.80
1337;DHT22;662;48.814;9.318;2023-06-22T00:24:20;24.60;61.00
1337;DHT22;662;48.814;9.318;2023-06-22T00:26:45;24.60;61.10
1337;DHT22;662;48.814;9.318;2023-06-22T00:29:12;24.60;61.10
1337;DHT22;662;48.814;9.318;2023-06-22T00:31:37;24.60;61.30
1337;DHT22;662;48.814;9.318;2023-06-22T00:34:03;24.60;61.30
1337;DHT22;662;48.814;9.318;2023-06-22T00:36:28;24.50;61.20
1337;DHT22;662;48.814;9.318;2023-06-22T00:38:54;24.50;61.40
1337;DHT22;662;48.814;9.318;2023-06-22T00:41:20;24.50;61.40
1337;DHT22;662;48.814;9.318;2023-06-22T00:43:45;24.50;61.40
1337;DHT22;662;48.814;9.318;2023-06-22T00:46:11;24.50;61.50
1337;DHT22;662;48.814;9.318;2023-06-22T00:48:38;24.40;61.40
1337;DHT22;662;48.814;9.318;2023-06-22T00:51:05;24.50;61.60
1337;DHT22;662;48.814;9.318;2023-06-22T00:53:31;24.40;61.60
1337;DHT22;662;48.814;9.318;2023-06-22T00:56:00;24.40;61.60
1337;DHT22;662;48.814;9.318;2023-06-22T00:58:26;24.40;61.60
1337;DHT22;662;48.814;9.318;2023-06-22T01:00:51;24.40;61.70
1337;DHT22;662;48.814;9.318;2023-06-22T01:03:17;24.30;61.70
1337;DHT22;662;48.814;9.318;2023-06-22T01:05:44;24.40;61.90
1337;DHT22;662;48.814;9.318;2023-06-22T01:08:44;24.30;61.70
1337;DHT22;662;48.814;9.318;2023-06-22T01:11:24;24.40;61.90
1337;DHT22;662;48.814;9.318;2023-06-22T01:13:57;24.30;61.80
1337;DHT22;662;48.814;9.318;2023-06-22T01:16:30;24.30;61.70
1337;DHT22;662;48.814;9.318;2023-06-22T01:19:14;24.30;61.80
1337;DHT22;662;48.814;9.318;2023-06-22T01:21:43;24.30;61.80
1337;DHT22;662;48.814;9.318;2023-06-22T01:24:29;24.30;61.70
1337;DHT22;662;48.814;9.318;2023-06-22T01:29:35;24.30;61.70
1337;DHT22;662;48.814;9.318;2023-06-22T01:32:03;24.30;61.70
1337;DHT22;662;48.814;9.318;2023-06-22T01:34:31;24.20;61.70
1337;DHT22;662;48.814;9.318;2023-06-22T01:36:59;24.20;61.90
1337;DHT22;662;48.814;9.318;2023-06-22T01:39:25;24.20;61.90
1337;DHT22;662;48.814;9.318;2023-06-22T01:41:52;24.20;62.20
1337;DHT22;662;48.814;9.318;2023-06-22T01:44:19;24.20;62.30
1337;DHT22;662;48.814;9.318;2023-06-22T01:46:45;24.10;62.20
1337;DHT22;662;48.814;9.318;2023-06-22T01:49:11;24.10;62.20
1337;DHT22;662;48.814;9.318;2023-06-22T01:51:37;24.10;62.30
1337;DHT22;662;48.814;9.318;2023-06-22T01:54:05;24.00;62.40
1337;DHT22;662;48.814;9.318;2023-06-22T01:56:31;24.00;62.50
1337;DHT22;662;48.814;9.318;2023-06-22T02:01:36;24.00;62.80
1337;DHT22;662;48.814;9.318;2023-06-22T02:04:17;23.90;62.80
1337;DHT22;662;48.814;9.318;2023-06-22T02:06:45;23.90;63.00
1337;DHT22;662;48.814;9.318;2023-06-22T02:09:16;23.80;63.10
1337;DHT22;662;48.814;9.318;2023-06-22T02:11:45;23.80;63.30
1337;DHT22;662;48.814;9.318;2023-06-22T02:14:12;23.80;63.50
1337;DHT22;662;48.814;9.318;2023-06-22T02:16:38;23.80;63.50
1337;DHT22;662;48.814;9.318;2023-06-22T02:19:04;23.70;63.50
1337;DHT22;662;48.814;9.318;2023-06-22T02:21:32;23.70;63.50
1337;DHT22;662;48.814;9.318;2023-06-22T02:23:58;23.70;63.60
1337;DHT22;662;48.814;9.318;2023-06-22T02:26:25;23.70;63.70
1337;DHT22;662;48.814;9.318;2023-06-22T02:28:51;23.60;63.80
1337;DHT22;662;48.814;9.318;2023-06-22T02:31:17;23.60;64.00
1337;DHT22;662;48.814;9.318;2023-06-22T02:33:43;23.60;64.10
1337;DHT22;662;48.814;9.318;2023-06-22T02:36:09;23.50;64.10
1337;DHT22;662;48.814;9.318;2023-06-22T02:38:37;23.50;64.30
1337;DHT22;662;48.814;9.318;2023-06-22T02:41:03;23.40;64.50
1337;DHT22;662;48.814;9.318;2023-06-22T02:43:29;23.40;64.70
1337;DHT22;662;48.814;9.318;2023-06-22T02:45:55;23.40;64.90
1337;DHT22;662;48.814;9.318;2023-06-22T02:48:21;23.30;64.80
1337;DHT22;662;48.814;9.318;2023-06-22T02:50:46;23.30;64.80
1337;DHT22;662;48.814;9.318;2023-06-22T02:53:12;23.40;65.00
1337;DHT22;662;48.814;9.318;2023-06-22T02:55:38;23.40;64.80
1337;DHT22;662;48.814;9.318;2023-06-22T02:58:05;23.40;64.80
1337;DHT22;662;48.814;9.318;2023-06-22T03:00:31;23.40;64.90
1337;DHT22;662;48.814;9.318;2023-06-22T03:02:58;23.40;64.80
1337;DHT22;662;48.814;9.318;2023-06-22T03:05:24;23.40;64.70
1337;DHT22;662;48.814;9.318;2023-06-22T03:07:49;23.40;64.70
1337;DHT22;662;48.814;9.318;2023-06-22T03:10:16;23.40;64.70
1337;DHT22;662;48.814;9.318;2023-06-22T03:12:42;23.40;64.60
1337;DHT22;662;48.814;9.318;2023-06-22T03:15:10;23.30;64.50
1337;DHT22;662;48.814;9.318;2023-06-22T03:17:37;23.30;64.40
1337;DHT22;662;48.814;9.318;2023-06-22T03:20:07;23.30;64.30
1337;DHT22;662;48.814;9.318;2023-06-22T03:22:38;23.20;64.30
1337;DHT22;662;48.814;9.318;2023-06-22T03:25:04;23.20;64.40
1337;DHT22;662;48.814;9.318;2023-06-22T03:27:29;23.20;64.60
1337;DHT22;662;48.814;9.318;2023-06-22T03:29:57;23.10;64.60
1337;DHT22;662;48.814;9.318;2023-06-22T03:32:23;23.10;64.60
1337;DHT22;662;48.814;9.318;2023-06-22T03:34:48;23.10;64.70
1337;DHT22;662;48.814;9.318;2023-06-22T03:37:15;23.10;64.70
1337;DHT22;662;48.814;9.318;2023-06-22T03:39:41;23.10;64.80
1337;DHT22;662;48.814;9.318;2023-06-22T03:42:07;23.00;64.90
1337;DHT22;662;48.814;9.318;2023-06-22T03:44:34;23.00;65.10
1337;DHT22;662;48.814;9.318;2023-06-22T03:47:02;22.90;65.10
1337;DHT22;662;48.814;9.318;2023-06-22T03:49:28;22.90;65.30
1337;DHT22;662;48.814;9.318;2023-06-22T03:51:54;22.90;65.50
1337;DHT22;662;48.814;9.318;2023-06-22T03:54:19;22.90;65.70
1337;DHT22;662;48.814;9.318;2023-06-22T03:56:45;22.90;65.80
1337;DHT22;662;48.814;9.318;2023-06-22T03:59:11;22.90;66.00
1337;DHT22;662;48.814;9.318;2023-06-22T04:01:36;22.80;66.00
1337;DHT22;662;48.814;9.318;2023-06-22T04:04:02;22.80;66.10
1337;DHT22;662;48.814;9.318;2023-06-22T04:06:28;22.80;66.10
1337;DHT22;662;48.814;9.318;2023-06-22T04:08:53;22.80;66.20
1337;DHT22;662;48.814;9.318;2023-06-22T04:11:19;22.80;66.20
1337;DHT22;662;48.814;9.318;2023-06-22T04:13:45;22.80;66.40
1337;DHT22;662;48.814;9.318;2023-06-22T04:16:11;22.80;67.00
1337;DHT22;662;48.814;9.318;2023-06-22T04:18:36;22.80;66.40
1337;DHT22;662;48.814;9.318;2023-06-22T04:21:02;22.80;66.50
1337;DHT22;662;48.814;9.318;2023-06-22T04:23:28;22.80;66.50
1337;DHT22;662;48.814;9.318;2023-06-22T04:25:54;22.80;66.60
1337;DHT22;662;48.814;9.318;2023-06-22T04:28:21;22.80;66.60
1337;DHT22;662;48.814;9.318;2023-06-22T04:30:47;22.80;66.60
1337;DHT22;662;48.814;9.318;2023-06-22T04:33:17;22.90;66.50
1337;DHT22;662;48.814;9.318;2023-06-22T04:35:45;22.90;66.40
1337;DHT22;662;48.814;9.318;2023-06-22T04:38:12;22.90;66.20
1337;DHT22;662;48.814;9.318;2023-06-22T04:40:39;22.90;66.30
1337;DHT22;662;48.814;9.318;2023-06-22T04:43:05;22.90;66.30
1337;DHT22;662;48.814;9.318;2023-06-22T04:45:34;22.90;66.40
1337;DHT22;662;48.814;9.318;2023-06-22T04:48:03;23.00;66.40
1337;DHT22;662;48.814;9.318;2023-06-22T04:50:29;23.00;66.40
1337;DHT22;662;48.814;9.318;2023-06-22T04:52:55;23.10;66.50
1337;DHT22;662;48.814;9.318;2023-06-22T04:55:20;23.10;66.40
1337;DHT22;662;48.814;9.318;2023-06-22T04:57:47;23.10;66.30
1337;DHT22;662;48.814;9.318;2023-06-22T05:00:19;23.20;66.30
1337;DHT22;662;48.814;9.318;2023-06-22T05:02:48;23.20;66.20
1337;DHT22;662;48.814;9.318;2023-06-22T05:05:14;23.20;66.10
1337;DHT22;662;48.814;9.318;2023-06-22T05:07:42;23.30;66.00
1337;DHT22;662;48.814;9.318;2023-06-22T05:10:10;23.30;66.00
1337;DHT22;662;48.814;9.318;2023-06-22T05:12:36;23.30;65.90
1337;DHT22;662;48.814;9.318;2023-06-22T05:15:02;23.30;65.90
1337;DHT22;662;48.814;9.318;2023-06-22T05:17:28;23.30;65.80
1337;DHT22;662;48.814;9.318;2023-06-22T05:19:53;23.40;65.90
1337;DHT22;662;48.814;9.318;2023-06-22T05:22:20;23.40;65.80
1337;DHT22;662;48.814;9.318;2023-06-22T05:24:46;23.40;65.80
1337;DHT22;662;48.814;9.318;2023-06-22T05:27:12;23.40;65.80
1337;DHT22;662;48.814;9.318;2023-06-22T05:29:38;23.50;65.90
1337;DHT22;662;48.814;9.318;2023-06-22T05:32:04;23.40;65.80
1337;DHT22;662;48.814;9.318;2023-06-22T05:34:30;23.40;65.60
1337;DHT22;662;48.814;9.318;2023-06-22T05:36:55;23.40;65.60
1337;DHT22;662;48.814;9.318;2023-06-22T05:39:21;23.50;65.50
1337;DHT22;662;48.814;9.318;2023-06-22T05:41:47;23.60;65.60
1337;DHT22;662;48.814;9.318;2023-06-22T05:44:12;23.60;65.50
1337;DHT22;662;48.814;9.318;2023-06-22T05:46:42;23.70;65.60
1337;DHT22;662;48.814;9.318;2023-06-22T05:49:12;23.70;65.40
1337;DHT22;662;48.814;9.318;2023-06-22T05:51:38;23.80;65.40
1337;DHT22;662;48.814;9.318;2023-06-22T05:54:05;23.90;65.30
1337;DHT22;662;48.814;9.318;2023-06-22T05:56:30;23.90;65.20
1337;DHT22;662;48.814;9.318;2023-06-22T05:58:56;24.00;65.00
1337;DHT22;662;48.814;9.318;2023-06-22T06:01:22;24.00;64.80
1337;DHT22;662;48.814;9.318;2023-06-22T06:03:47;24.10;64.60
1337;DHT22;662;48.814;9.318;2023-06-22T06:06:15;24.20;64.40
1337;DHT22;662;48.814;9.318;2023-06-22T06:08:41;24.20;64.30
1337;DHT22;662;48.814;9.318;2023-06-22T06:11:07;24.30;64.20
1337;DHT22;662;48.814;9.318;2023-06-22T06:13:33;24.30;64.00
1337;DHT22;662;48.814;9.318;2023-06-22T06:15:58;24.30;63.90
1337;DHT22;662;48.814;9.318;2023-06-22T06:18:24;24.30;63.80
1337;DHT22;662;48.814;9.318;2023-06-22T06:20:50;24.40;63.60
1337;DHT22;662;48.814;9.318;2023-06-22T06:23:16;24.40;63.60
1337;DHT22;662;48.814;9.318;2023-06-22T06:25:42;24.40;63.40
1337;DHT22;662;48.814;9.318;2023-06-22T06:28:07;24.40;63.30
1337;DHT22;662;48.814;9.318;2023-06-22T06:30:33;24.40;63.40
1337;DHT22;662;48.814;9.318;2023-06-22T06:32:58;24.40;63.30
1337;DHT22;662;48.814;9.318;2023-06-22T06:35:24;24.40;63.30
1337;DHT22;662;48.814;9.318;2023-06-22T06:37:50;24.40;63.30
1337;DHT22;662;48.814;9.318;2023-06-22T06:40:18;24.50;63.20
1337;DHT22;662;48.814;9.318;2023-06-22T06:42:45;24.50;63.20
1337;DHT22;662;48.814;9.318;2023-06-22T06:45:15;24.60;63.10
1337;DHT22;662;48.814;9.318;2023-06-22T06:47:41;24.70;63.00
1337;DHT22;662;48.814;9.318;2023-06-22T06:50:07;24.80;62.90
1337;DHT22;662;48.814;9.318;2023-06-22T06:52:33;24.90;62.90
1337;DHT22;662;48.814;9.318;2023-06-22T06:55:00;24.90;62.60
1337;DHT22;662;48.814;9.318;2023-06-22T06:57:28;25.00;62.30
1337;DHT22;662;48.814;9.318;2023-06-22T06:59:56;25.10;62.10
1337;DHT22;662;48.814;9.318;2023-06-22T07:02:23;25.20;61.90
1337;DHT22;662;48.814;9.318;2023-06-22T07:04:48;25.20;61.60
1337;DHT22;662;48.814;9.318;2023-06-22T07:07:14;25.30;61.60
1337;DHT22;662;48.814;9.318;2023-06-22T07:09:40;25.30;61.40
1337;DHT22;662;48.814;9.318;2023-06-22T07:12:06;25.40;61.10
1337;DHT22;662;48.814;9.318;2023-06-22T07:14:32;25.50;60.70
1337;DHT22;662;48.814;9.318;2023-06-22T07:16:58;25.60;60.40
1337;DHT22;662;48.814;9.318;2023-06-22T07:19:25;25.70;60.40
1337;DHT22;662;48.814;9.318;2023-06-22T07:21:51;25.70;60.40
1337;DHT22;662;48.814;9.318;2023-06-22T07:24:17;25.80;59.90
1337;DHT22;662;48.814;9.318;2023-06-22T07:26:45;25.80;59.30
1337;DHT22;662;48.814;9.318;2023-06-22T07:29:11;25.90;59.40
1337;DHT22;662;48.814;9.318;2023-06-22T07:31:37;25.90;59.40
1337;DHT22;662;48.814;9.318;2023-06-22T07:34:05;26.00;59.00
1337;DHT22;662;48.814;9.318;2023-06-22T07:36:31;26.10;58.90
1337;DHT22;662;48.814;9.318;2023-06-22T07:38:56;26.20;58.70
1337;DHT22;662;48.814;9.318;2023-06-22T07:41:22;26.30;58.30
1337;DHT22;662;48.814;9.318;2023-06-22T07:43:48;26.40;58.20
1337;DHT22;662;48.814;9.318;2023-06-22T07:46:13;26.50;58.10
1337;DHT22;662;48.814;9.318;2023-06-22T07:48:39;26.60;57.50
1337;DHT22;662;48.814;9.318;2023-06-22T07:51:07;26.60;57.20
1337;DHT22;662;48.814;9.318;2023-06-22T07:53:32;26.70;56.90
1337;DHT22;662;48.814;9.318;2023-06-22T07:55:58;26.80;56.90
1337;DHT22;662;48.814;9.318;2023-06-22T07:58:24;27.00;56.70
1337;DHT22;662;48.814;9.318;2023-06-22T08:00:49;27.00;56.50
1337;DHT22;662;48.814;9.318;2023-06-22T08:03:15;27.20;56.20
1337;DHT22;662;48.814;9.318;2023-06-22T08:05:41;27.20;55.80
1337;DHT22;662;48.814;9.318;2023-06-22T08:08:07;27.30;55.60
1337;DHT22;662;48.814;9.318;2023-06-22T08:10:32;27.40;55.60
1337;DHT22;662;48.814;9.318;2023-06-22T08:12:58;27.50;55.00
1337;DHT22;662;48.814;9.318;2023-06-22T08:15:25;27.50;54.80
1337;DHT22;662;48.814;9.318;2023-06-22T08:17:52;27.60;54.70
1337;DHT22;662;48.814;9.318;2023-06-22T08:20:18;27.70;54.20
1337;DHT22;662;48.814;9.318;2023-06-22T08:22:43;27.80;54.10
1337;DHT22;662;48.814;9.318;2023-06-22T08:25:10;27.90;53.90
1337;DHT22;662;48.814;9.318;2023-06-22T08:27:36;28.00;53.70
1337;DHT22;662;48.814;9.318;2023-06-22T08:30:02;28.20;53.50
1337;DHT22;662;48.814;9.318;2023-06-22T08:32:28;28.50;53.20
1337;DHT22;662;48.814;9.318;2023-06-22T08:34:55;28.60;52.60
1337;DHT22;662;48.814;9.318;2023-06-22T08:37:21;28.80;52.20
1337;DHT22;662;48.814;9.318;2023-06-22T08:39:56;29.00;52.00
1337;DHT22;662;48.814;9.318;2023-06-22T08:42:22;29.10;51.50
1337;DHT22;662;48.814;9.318;2023-06-22T08:44:49;29.30;51.40
1337;DHT22;662;48.814;9.318;2023-06-22T08:47:15;29.40;51.00
1337;DHT22;662;48.814;9.318;2023-06-22T08:49:41;29.50;50.50
1337;DHT22;662;48.814;9.318;2023-06-22T08:52:07;29.70;50.20
1337;DHT22;662;48.814;9.318;2023-06-22T08:54:33;29.90;49.90
1337;DHT22;662;48.814;9.318;2023-06-22T08:57:00;30.10;49.50
1337;DHT22;662;48.814;9.318;2023-06-22T08:59:29;30.10;49.00
1337;DHT22;662;48.814;9.318;2023-06-22T09:01:54;30.20;48.60
1337;DHT22;662;48.814;9.318;2023-06-22T09:04:20;30.20;48.70
1337;DHT22;662;48.814;9.318;2023-06-22T09:06:48;30.30;48.70
1337;DHT22;662;48.814;9.318;2023-06-22T09:09:14;30.40;48.50
1337;DHT22;662;48.814;9.318;2023-06-22T09:11:40;30.50;48.30
1337;DHT22;662;48.814;9.318;2023-06-22T09:14:06;30.70;47.90
1337;DHT22;662;48.814;9.318;2023-06-22T09:16:32;30.90;47.70
1337;DHT22;662;48.814;9.318;2023-06-22T09:18:57;31.10;47.20
1337;DHT22;662;48.814;9.318;2023-06-22T09:21:23;31.20;46.70
1337;DHT22;662;48.814;9.318;2023-06-22T09:23:49;31.30;46.70
1337;DHT22;662;48.814;9.318;2023-06-22T09:26:18;31.40;46.70
1337;DHT22;662;48.814;9.318;2023-06-22T09:28:44;31.60;46.30
1337;DHT22;662;48.814;9.318;2023-06-22T09:31:10;31.60;46.10
1337;DHT22;662;48.814;9.318;2023-06-22T09:33:36;31.70;46.20
1337;DHT22;662;48.814;9.318;2023-06-22T09:36:07;31.90;46.10
1337;DHT22;662;48.814;9.318;2023-06-22T09:38:39;32.00;46.60
1337;DHT22;662;48.814;9.318;2023-06-22T09:41:07;32.10;46.10
1337;DHT22;662;48.814;9.318;2023-06-22T09:43:33;32.10;45.50
1337;DHT22;662;48.814;9.318;2023-06-22T09:46:02;32.20;45.40
1337;DHT22;662;48.814;9.318;2023-06-22T09:48:28;32.30;45.80
1337;DHT22;662;48.814;9.318;2023-06-22T09:50:57;32.40;44.80
1337;DHT22;662;48.814;9.318;2023-06-22T09:53:23;32.60;44.80
1337;DHT22;662;48.814;9.318;2023-06-22T09:55:48;33.00;44.60
1337;DHT22;662;48.814;9.318;2023-06-22T09:58:14;33.80;43.30
1337;DHT22;662;48.814;9.318;2023-06-22T10:00:40;34.40;42.20
1337;DHT22;662;48.814;9.318;2023-06-22T10:03:07;34.80;41.20
1337;DHT22;662;48.814;9.318;2023-06-22T10:05:33;35.10;40.50
1337;DHT22;662;48.814;9.318;2023-06-22T10:07:59;35.30;39.80
1337;DHT22;662;48.814;9.318;2023-06-22T10:10:24;35.80;39.60
1337;DHT22;662;48.814;9.318;2023-06-22T10:12:57;36.40;37.70
1337;DHT22;662;48.814;9.318;2023-06-22T10:15:23;37.10;37.30
1337;DHT22;662;48.814;9.318;2023-06-22T10:17:49;37.60;35.70
1337;DHT22;662;48.814;9.318;2023-06-22T10:20:15;37.50;35.30
1337;DHT22;662;48.814;9.318;2023-06-22T10:22:44;37.20;35.10
1337;DHT22;662;48.814;9.318;2023-06-22T10:25:11;37.00;35.70
1337;DHT22;662;48.814;9.318;2023-06-22T10:27:38;36.70;36.50
1337;DHT22;662;48.814;9.318;2023-06-22T10:30:08;36.40;36.90
1337;DHT22;662;48.814;9.318;2023-06-22T10:32:34;36.20;37.70
1337;DHT22;662;48.814;9.318;2023-06-22T10:34:59;36.10;38.00
1337;DHT22;662;48.814;9.318;2023-06-22T10:37:25;36.10;38.00
1337;DHT22;662;48.814;9.318;2023-06-22T10:39:51;36.20;37.90
1337;DHT22;662;48.814;9.318;2023-06-22T10:42:17;36.30;37.40
1337;DHT22;662;48.814;9.318;2023-06-22T10:44:42;36.00;37.60
1337;DHT22;662;48.814;9.318;2023-06-22T10:47:10;35.90;38.10
1337;DHT22;662;48.814;9.318;2023-06-22T10:49:38;36.10;38.50
1337;DHT22;662;48.814;9.318;2023-06-22T10:52:04;36.20;38.20
1337;DHT22;662;48.814;9.318;2023-06-22T10:54:29;36.20;38.10
1337;DHT22;662;48.814;9.318;2023-06-22T10:56:55;36.00;38.10
1337;DHT22;662;48.814;9.318;2023-06-22T10:59:21;35.90;37.80
1337;DHT22;662;48.814;9.318;2023-06-22T11:01:49;35.70;37.70
1337;DHT22;662;48.814;9.318;2023-06-22T11:04:14;35.40;37.90
1337;DHT22;662;48.814;9.318;2023-06-22T11:06:40;35.10;38.50
1337;DHT22;662;48.814;9.318;2023-06-22T11:09:06;34.90;38.90
1337;DHT22;662;48.814;9.318;2023-06-22T11:11:32;34.70;39.30
1337;DHT22;662;48.814;9.318;2023-06-22T11:13:58;34.50;39.50
1337;DHT22;662;48.814;9.318;2023-06-22T11:16:23;34.40;39.50
1337;DHT22;662;48.814;9.318;2023-06-22T11:18:49;34.30;39.70
1337;DHT22;662;48.814;9.318;2023-06-22T11:21:15;34.30;40.00
1337;DHT22;662;48.814;9.318;2023-06-22T11:23:44;34.30;40.20
1337;DHT22;662;48.814;9.318;2023-06-22T11:26:10;34.20;40.40
1337;DHT22;662;48.814;9.318;2023-06-22T11:28:36;34.10;39.90
1337;DHT22;662;48.814;9.318;2023-06-22T11:31:02;34.10;39.80
1337;DHT22;662;48.814;9.318;2023-06-22T11:33:27;34.10;40.00
1337;DHT22;662;48.814;9.318;2023-06-22T11:35:53;34.10;39.90
1337;DHT22;662;48.814;9.318;2023-06-22T11:38:18;34.10;39.90
1337;DHT22;662;48.814;9.318;2023-06-22T11:40:44;34.20;39.70
1337;DHT22;662;48.814;9.318;2023-06-22T11:43:10;34.30;40.00
1337;DHT22;662;48.814;9.318;2023-06-22T11:45:35;34.30;40.10
1337;DHT22;662;48.814;9.318;2023-06-22T11:48:01;34.40;40.10
1337;DHT22;662;48.814;9.318;2023-06-22T11:50:27;34.40;39.90
1337;DHT22;662;48.814;9.318;2023-06-22T11:52:55;34.50;39.50
1337;DHT22;662;48.814;9.318;2023-06-22T11:55:21;34.50;39.30
1337;DHT22;662;48.814;9.318;2023-06-22T11:57:56;34.50;39.50
1337;DHT22;662;48.814;9.318;2023-06-22T12:00:24;34.50;39.70
1337;DHT22;662;48.814;9.318;2023-06-22T12:02:50;34.60;39.80
1337;DHT22;662;48.814;9.318;2023-06-22T12:05:19;34.60;39.70
1337;DHT22;662;48.814;9.318;2023-06-22T12:07:46;34.50;39.20
1337;DHT22;662;48.814;9.318;2023-06-22T12:10:12;34.60;39.40
1337;DHT22;662;48.814;9.318;2023-06-22T12:12:38;34.60;39.30
1337;DHT22;662;48.814;9.318;2023-06-22T12:15:03;34.80;39.00
1337;DHT22;662;48.814;9.318;2023-06-22T12:17:30;34.90;39.10
1337;DHT22;662;48.814;9.318;2023-06-22T12:19:55;34.90;39.40
1337;DHT22;662;48.814;9.318;2023-06-22T12:22:21;34.90;39.80
1337;DHT22;662;48.814;9.318;2023-06-22T12:24:47;34.90;39.90
1337;DHT22;662;48.814;9.318;2023-06-22T12:27:13;34.70;39.60
1337;DHT22;662;48.814;9.318;2023-06-22T12:29:41;34.50;40.50
1337;DHT22;662;48.814;9.318;2023-06-22T12:32:07;34.50;40.50
1337;DHT22;662;48.814;9.318;2023-06-22T12:34:33;34.40;41.00
1337;DHT22;662;48.814;9.318;2023-06-22T12:36:58;34.30;41.10
1337;DHT22;662;48.814;9.318;2023-06-22T12:39:24;34.30;41.20
1337;DHT22;662;48.814;9.318;2023-06-22T12:41:50;34.30;41.60
1337;DHT22;662;48.814;9.318;2023-06-22T12:44:15;34.30;41.90
1337;DHT22;662;48.814;9.318;2023-06-22T12:46:41;34.10;42.00
1337;DHT22;662;48.814;9.318;2023-06-22T12:49:07;34.00;41.70
1337;DHT22;662;48.814;9.318;2023-06-22T12:51:32;33.90;41.30
1337;DHT22;662;48.814;9.318;2023-06-22T12:53:59;33.70;41.50
1337;DHT22;662;48.814;9.318;2023-06-22T12:56:25;33.60;41.50
1337;DHT22;662;48.814;9.318;2023-06-22T12:58:50;33.50;41.90
1337;DHT22;662;48.814;9.318;2023-06-22T13:01:16;33.30;42.10
1337;DHT22;662;48.814;9.318;2023-06-22T13:03:43;33.20;42.20
1337;DHT22;662;48.814;9.318;2023-06-22T13:06:09;33.10;42.20
1337;DHT22;662;48.814;9.318;2023-06-22T13:08:34;33.00;41.90
1337;DHT22;662;48.814;9.318;2023-06-22T13:11:00;33.00;42.10
1337;DHT22;662;48.814;9.318;2023-06-22T13:13:26;33.00;42.60
1337;DHT22;662;48.814;9.318;2023-06-22T13:15:53;32.90;42.50
1337;DHT22;662;48.814;9.318;2023-06-22T13:18:19;32.90;42.10
1337;DHT22;662;48.814;9.318;2023-06-22T13:20:45;32.90;42.00
1337;DHT22;662;48.814;9.318;2023-06-22T13:23:11;32.80;42.10
1337;DHT22;662;48.814;9.318;2023-06-22T13:25:37;32.80;42.20
1337;DHT22;662;48.814;9.318;2023-06-22T13:28:03;32.80;41.90
1337;DHT22;662;48.814;9.318;2023-06-22T13:30:29;32.90;41.90
1337;DHT22;662;48.814;9.318;2023-06-22T13:32:56;32.90;41.90
1337;DHT22;662;48.814;9.318;2023-06-22T13:35:21;33.10;41.70
1337;DHT22;662;48.814;9.318;2023-06-22T13:37:47;33.30;41.80
1337;DHT22;662;48.814;9.318;2023-06-22T13:40:13;33.50;41.90
1337;DHT22;662;48.814;9.318;2023-06-22T13:42:39;33.70;41.60
1337;DHT22;662;48.814;9.318;2023-06-22T13:45:05;33.70;41.60
1337;DHT22;662;48.814;9.318;2023-06-22T13:47:34;33.80;41.80
1337;DHT22;662;48.814;9.318;2023-06-22T13:50:00;33.80;41.40
1337;DHT22;662;48.814;9.318;2023-06-22T13:52:26;33.80;41.20
1337;DHT22;662;48.814;9.318;2023-06-22T13:54:52;33.80;41.10
1337;DHT22;662;48.814;9.318;2023-06-22T13:57:17;33.80;41.10
1337;DHT22;662;48.814;9.318;2023-06-22T13:59:43;33.80;40.80
1337;DHT22;662;48.814;9.318;2023-06-22T14:02:08;33.80;40.60
1337;DHT22;662;48.814;9.318;2023-06-22T14:04:34;33.80;40.40
1337;DHT22;662;48.814;9.318;2023-06-22T14:07:00;33.80;40.00
1337;DHT22;662;48.814;9.318;2023-06-22T14:09:25;33.80;39.20
1337;DHT22;662;48.814;9.318;2023-06-22T14:11:54;33.80;39.50
1337;DHT22;662;48.814;9.318;2023-06-22T14:14:21;33.90;39.30
1337;DHT22;662;48.814;9.318;2023-06-22T14:16:47;34.20;39.90
1337;DHT22;662;48.814;9.318;2023-06-22T14:19:17;34.40;39.40
1337;DHT22;662;48.814;9.318;2023-06-22T14:21:42;34.60;39.40
1337;DHT22;662;48.814;9.318;2023-06-22T14:24:08;34.80;38.70
1337;DHT22;662;48.814;9.318;2023-06-22T14:26:34;35.10;38.20
1337;DHT22;662;48.814;9.318;2023-06-22T14:28:59;35.40;38.20
1337;DHT22;662;48.814;9.318;2023-06-22T14:31:25;35.70;37.80
1337;DHT22;662;48.814;9.318;2023-06-22T14:33:51;35.80;36.80
1337;DHT22;662;48.814;9.318;2023-06-22T14:36:17;35.80;36.80
1337;DHT22;662;48.814;9.318;2023-06-22T14:38:43;35.70;36.70
1337;DHT22;662;48.814;9.318;2023-06-22T14:41:09;35.60;36.70
1337;DHT22;662;48.814;9.318;2023-06-22T14:43:34;35.60;36.40
1337;DHT22;662;48.814;9.318;2023-06-22T14:46:00;35.50;35.60
1337;DHT22;662;48.814;9.318;2023-06-22T14:48:26;35.80;35.20
1337;DHT22;662;48.814;9.318;2023-06-22T14:50:52;36.20;34.80
1337;DHT22;662;48.814;9.318;2023-06-22T14:53:19;36.50;33.40
1337;DHT22;662;48.814;9.318;2023-06-22T14:55:45;36.90;33.00
1337;DHT22;662;48.814;9.318;2023-06-22T14:58:10;37.30;32.80
1337;DHT22;662;48.814;9.318;2023-06-22T15:00:37;37.50;32.10
1337;DHT22;662;48.814;9.318;2023-06-22T15:03:04;37.70;30.30
1337;DHT22;662;48.814;9.318;2023-06-22T15:05:32;37.60;29.40
1337;DHT22;662;48.814;9.318;2023-06-22T15:07:57;37.60;29.80
1337;DHT22;662;48.814;9.318;2023-06-22T15:10:26;37.50;30.70
1337;DHT22;662;48.814;9.318;2023-06-22T15:12:52;37.50;30.90
1337;DHT22;662;48.814;9.318;2023-06-22T15:15:18;37.20;30.40
1337;DHT22;662;48.814;9.318;2023-06-22T15:17:43;37.00;31.20
1337;DHT22;662;48.814;9.318;2023-06-22T15:20:12;36.80;31.80
1337;DHT22;662;48.814;9.318;2023-06-22T15:22:37;36.50;31.80
1337;DHT22;662;48.814;9.318;2023-06-22T15:25:03;36.40;31.50
1337;DHT22;662;48.814;9.318;2023-06-22T15:27:29;36.40;30.50
1337;DHT22;662;48.814;9.318;2023-06-22T15:29:54;36.30;29.10
1337;DHT22;662;48.814;9.318;2023-06-22T15:32:20;36.00;28.60
1337;DHT22;662;48.814;9.318;2023-06-22T15:34:46;35.90;28.80
1337;DHT22;662;48.814;9.318;2023-06-22T15:37:11;35.90;28.70
1337;DHT22;662;48.814;9.318;2023-06-22T15:39:37;35.80;28.70
1337;DHT22;662;48.814;9.318;2023-06-22T15:42:02;35.70;28.50
1337;DHT22;662;48.814;9.318;2023-06-22T15:44:28;35.60;28.70
1337;DHT22;662;48.814;9.318;2023-06-22T15:46:54;35.40;28.60
1337;DHT22;662;48.814;9.318;2023-06-22T15:49:19;35.20;28.40
1337;DHT22;662;48.814;9.318;2023-06-22T15:51:45;35.10;28.90
1337;DHT22;662;48.814;9.318;2023-06-22T15:54:11;34.90;29.30
1337;DHT22;662;48.814;9.318;2023-06-22T15:56:37;34.80;29.30
1337;DHT22;662;48.814;9.318;2023-06-22T15:59:03;34.70;29.40
1337;DHT22;662;48.814;9.318;2023-06-22T16:01:29;34.60;29.50
1337;DHT22;662;48.814;9.318;2023-06-22T16:03:54;34.60;29.50
1337;DHT22;662;48.814;9.318;2023-06-22T16:06:20;34.50;29.20
1337;DHT22;662;48.814;9.318;2023-06-22T16:08:46;34.40;28.70
1337;DHT22;662;48.814;9.318;2023-06-22T16:11:12;34.30;29.00
1337;DHT22;662;48.814;9.318;2023-06-22T16:13:37;34.20;29.10
1337;DHT22;662;48.814;9.318;2023-06-22T16:16:05;34.00;29.20
1337;DHT22;662;48.814;9.318;2023-06-22T16:18:31;33.90;29.30